sensor_id;sensor_type;location;lat;lon;timestamp;temperature;humidity
38500;DHT22;24269;51.894;4.622;2023-03-16T00:00:42;6.70;99.90
38500;DHT22;24269;51.894;4.622;2023-03-16T00:03:11;6.70;99.90
38500;DHT22;24269;51.894;4.622;2023-03-16T00:05:50;6.70;99.90
38500;DHT22;24269;51.894;4.622;2023-03-16T00:08:17;6.80;99.90
38500;DHT22;24269;51.894;4.622;2023-03-16T00:10:43;6.70;99.90
38500;DHT22;24269;51.894;4.622;2023-03-16T00:13:18;6.80;99.90
38500;DHT22;24269;51.894;4.622;2023-03-16T00:15:56;6.70;99.90
38500;DHT22;24269;51.894;4.622;2023-03-16T00:18:24;6.80;99.90
38500;DHT22;24269;51.894;4.622;2023-03-16T00:20:54;6.70;99.90
38500;DHT22;24269;51.894;4.622;2023-03-16T00:23:20;6.80;99.90
38500;DHT22;24269;51.894;4.622;2023-03-16T00:26:03;6.80;99.90
38500;DHT22;24269;51.894;4.622;2023-03-16T00:28:31;6.80;99.90
38500;DHT22;24269;51.894;4.622;2023-03-16T00:31:09;6.80;99.90
38500;DHT22;24269;51.894;4.622;2023-03-16T00:33:39;6.80;99.90
38500;DHT22;24269;51.894;4.622;2023-03-16T00:36:08;6.90;99.90
38500;DHT22;24269;51.894;4.622;2023-03-16T00:38:38;6.90;99.90
38500;DHT22;24269;51.894;4.622;2023-03-16T00:41:06;6.90;99.90
38500;DHT22;24269;51.894;4.622;2023-03-16T00:43:34;6.90;99.90
38500;DHT22;24269;51.894;4.622;2023-03-16T00:46:07;6.90;99.90
38500;DHT22;24269;51.894;4.622;2023-03-16T00:48:38;6.90;99.90
38500;DHT22;24269;51.894;4.622;2023-03-16T00:51:05;6.90;99.90
38500;DHT22;24269;51.894;4.622;2023-03-16T00:53:32;7.00;99.90
38500;DHT22;24269;51.894;4.622;2023-03-16T00:55:59;6.90;99.90
38500;DHT22;24269;51.894;4.622;2023-03-16T00:58:27;6.90;99.90
38500;DHT22;24269;51.894;4.622;2023-03-16T01:00:52;6.90;99.90
38500;DHT22;24269;51.894;4.622;2023-03-16T01:03:19;6.90;99.90
38500;DHT22;24269;51.894;4.622;2023-03-16T01:05:45;6.90;99.90
38500;DHT22;24269;51.894;4.622;2023-03-16T01:08:10;6.90;99.90
38500;DHT22;24269;51.894;4.622;2023-03-16T01:10:36;6.90;99.90
38500;DHT22;24269;51.894;4.622;2023-03-16T01:13:02;6.90;99.90
38500;DHT22;24269;51.894;4.622;2023-03-16T01:15:31;6.90;99.90
38500;DHT22;24269;51.894;4.622;2023-03-16T01:17:59;6.90;99.90
38500;DHT22;24269;51.894;4.622;2023-03-16T01:20:24;6.90;99.90
38500;DHT22;24269;51.894;4.622;2023-03-16T01:22:51;6.90;99.90
38500;DHT22;24269;51.894;4.622;2023-03-16T01:25:17;6.90;99.90
38500;DHT22;24269;51.894;4.622;2023-03-16T01:27:42;6.90;99.90
38500;DHT22;24269;51.894;4.622;2023-03-16T01:30:09;6.90;99.90
38500;DHT22;24269;51.894;4.622;2023-03-16T01:32:37;6.90;99.90
38500;DHT22;24269;51.894;4.622;2023-03-16T01:35:05;6.90;99.90
38500;DHT22;24269;51.894;4.622;2023-03-16T01:37:31;6.90;99.90
38500;DHT22;24269;51.894;4.622;2023-03-16T01:39:56;6.90;99.90
38500;DHT22;24269;51.894;4.622;2023-03-16T01:42:22;6.90;99.90
38500;DHT22;24269;51.894;4.622;2023-03-16T01:44:59;7.00;99.90
38500;DHT22;24269;51.894;4.622;2023-03-16T01:47:30;7.00;99.90
38500;DHT22;24269;51.894;4.622;2023-03-16T01:50:02;6.90;99.90
38500;DHT22;24269;51.894;4.622;2023-03-16T01:52:31;7.00;99.90
38500;DHT22;24269;51.894;4.622;2023-03-16T01:55:03;6.90;99.90
38500;DHT22;24269;51.894;4.622;2023-03-16T01:57:33;7.00;99.90
38500;DHT22;24269;51.894;4.622;2023-03-16T02:00:14;7.00;99.90
38500;DHT22;24269;51.894;4.622;2023-03-16T02:02:48;7.00;99.90
38500;DHT22;24269;51.894;4.622;2023-03-16T02:05:36;7.10;99.90
38500;DHT22;24269;51.894;4.622;2023-03-16T02:08:03;7.10;99.90
38500;DHT22;24269;51.894;4.622;2023-03-16T02:10:30;7.10;99.90
38500;DHT22;24269;51.894;4.622;2023-03-16T02:12:57;7.10;99.90
38500;DHT22;24269;51.894;4.622;2023-03-16T02:15:23;7.00;99.90
38500;DHT22;24269;51.894;4.622;2023-03-16T02:17:49;7.00;99.90
38500;DHT22;24269;51.894;4.622;2023-03-16T02:22:59;7.00;99.90
38500;DHT22;24269;51.894;4.622;2023-03-16T02:31:13;6.90;99.90
38500;DHT22;24269;51.894;4.622;2023-03-16T02:33:40;6.90;99.90
38500;DHT22;24269;51.894;4.622;2023-03-16T02:36:06;6.90;99.90
38500;DHT22;24269;51.894;4.622;2023-03-16T02:38:32;6.90;99.90
38500;DHT22;24269;51.894;4.622;2023-03-16T02:41:18;6.90;99.90
38500;DHT22;24269;51.894;4.622;2023-03-16T02:43:52;6.80;99.90
38500;DHT22;24269;51.894;4.622;2023-03-16T02:46:22;6.80;99.90
38500;DHT22;24269;51.894;4.622;2023-03-16T02:49:00;6.80;99.90
38500;DHT22;24269;51.894;4.622;2023-03-16T02:51:28;6.80;99.90
38500;DHT22;24269;51.894;4.622;2023-03-16T02:53:54;6.80;99.90
38500;DHT22;24269;51.894;4.622;2023-03-16T02:56:21;6.80;99.90
38500;DHT22;24269;51.894;4.622;2023-03-16T02:58:46;6.80;99.90
38500;DHT22;24269;51.894;4.622;2023-03-16T03:01:12;6.80;99.90
38500;DHT22;24269;51.894;4.622;2023-03-16T03:03:38;6.80;99.90
38500;DHT22;24269;51.894;4.622;2023-03-16T03:06:04;6.80;99.90
38500;DHT22;24269;51.894;4.622;2023-03-16T03:08:29;6.70;99.90
38500;DHT22;24269;51.894;4.622;2023-03-16T03:10:57;6.80;99.90
38500;DHT22;24269;51.894;4.622;2023-03-16T03:13:23;6.80;99.90
38500;DHT22;24269;51.894;4.622;2023-03-16T03:15:49;6.70;99.90
38500;DHT22;24269;51.894;4.622;2023-03-16T03:18:14;6.70;99.90
38500;DHT22;24269;51.894;4.622;2023-03-16T03:20:40;6.70;99.90
38500;DHT22;24269;51.894;4.622;2023-03-16T03:23:06;6.70;99.90
38500;DHT22;24269;51.894;4.622;2023-03-16T03:25:32;6.70;99.90
38500;DHT22;24269;51.894;4.622;2023-03-16T03:27:59;6.70;99.90
38500;DHT22;24269;51.894;4.622;2023-03-16T03:30:27;6.70;99.90
38500;DHT22;24269;51.894;4.622;2023-03-16T03:32:53;6.70;99.90
38500;DHT22;24269;51.894;4.622;2023-03-16T03:35:19;6.70;99.90
38500;DHT22;24269;51.894;4.622;2023-03-16T03:37:46;6.70;99.90
38500;DHT22;24269;51.894;4.622;2023-03-16T03:40:13;6.70;99.90
38500;DHT22;24269;51.894;4.622;2023-03-16T03:42:40;6.70;99.90
38500;DHT22;24269;51.894;4.622;2023-03-16T03:45:07;6.70;99.90
38500;DHT22;24269;51.894;4.622;2023-03-16T03:47:33;6.80;99.90
38500;DHT22;24269;51.894;4.622;2023-03-16T03:49:59;6.80;99.90
38500;DHT22;24269;51.894;4.622;2023-03-16T03:52:26;6.70;99.90
38500;DHT22;24269;51.894;4.622;2023-03-16T03:54:52;6.80;99.90
38500;DHT22;24269;51.894;4.622;2023-03-16T03:57:17;6.70;99.90
38500;DHT22;24269;51.894;4.622;2023-03-16T03:59:43;6.70;99.90
38500;DHT22;24269;51.894;4.622;2023-03-16T04:02:09;6.70;99.90
38500;DHT22;24269;51.894;4.622;2023-03-16T04:04:35;6.70;99.90
38500;DHT22;24269;51.894;4.622;2023-03-16T04:07:02;6.80;99.90
38500;DHT22;24269;51.894;4.622;2023-03-16T04:09:28;6.80;99.90
38500;DHT22;24269;51.894;4.622;2023-03-16T04:11:54;6.80;99.90
38500;DHT22;24269;51.894;4.622;2023-03-16T04:14:22;6.80;99.90
38500;DHT22;24269;51.894;4.622;2023-03-16T04:16:47;6.80;99.90
38500;DHT22;24269;51.894;4.622;2023-03-16T04:19:13;6.80;99.90
38500;DHT22;24269;51.894;4.622;2023-03-16T04:21:38;6.80;99.90
38500;DHT22;24269;51.894;4.622;2023-03-16T04:24:04;6.70;99.90
38500;DHT22;24269;51.894;4.622;2023-03-16T04:26:31;6.70;99.90
38500;DHT22;24269;51.894;4.622;2023-03-16T04:28:57;6.80;99.90
38500;DHT22;24269;51.894;4.622;2023-03-16T04:31:23;6.80;99.90
38500;DHT22;24269;51.894;4.622;2023-03-16T04:33:49;6.70;99.90
38500;DHT22;24269;51.894;4.622;2023-03-16T04:36:15;6.80;99.90
38500;DHT22;24269;51.894;4.622;2023-03-16T04:38:41;6.70;99.90
38500;DHT22;24269;51.894;4.622;2023-03-16T04:41:06;6.70;99.90
38500;DHT22;24269;51.894;4.622;2023-03-16T04:43:32;6.70;99.90
38500;DHT22;24269;51.894;4.622;2023-03-16T04:46:02;6.70;99.90
38500;DHT22;24269;51.894;4.622;2023-03-16T04:48:29;6.60;99.90
38500;DHT22;24269;51.894;4.622;2023-03-16T04:50:56;6.60;99.90
38500;DHT22;24269;51.894;4.622;2023-03-16T04:53:22;6.60;99.90
38500;DHT22;24269;51.894;4.622;2023-03-16T04:55:48;6.50;99.90
38500;DHT22;24269;51.894;4.622;2023-03-16T04:58:13;6.60;99.90
38500;DHT22;24269;51.894;4.622;2023-03-16T05:00:39;6.60;99.90
38500;DHT22;24269;51.894;4.622;2023-03-16T05:03:06;6.50;99.90
38500;DHT22;24269;51.894;4.622;2023-03-16T05:05:35;6.50;99.90
38500;DHT22;24269;51.894;4.622;2023-03-16T05:08:01;6.50;99.90
38500;DHT22;24269;51.894;4.622;2023-03-16T05:10:27;6.50;99.90
38500;DHT22;24269;51.894;4.622;2023-03-16T05:12:53;6.50;99.90
38500;DHT22;24269;51.894;4.622;2023-03-16T05:15:18;6.50;99.90
38500;DHT22;24269;51.894;4.622;2023-03-16T05:17:44;6.50;99.90
38500;DHT22;24269;51.894;4.622;2023-03-16T05:20:12;6.60;99.90
38500;DHT22;24269;51.894;4.622;2023-03-16T05:22:42;6.50;99.90
38500;DHT22;24269;51.894;4.622;2023-03-16T05:25:09;6.50;99.90
38500;DHT22;24269;51.894;4.622;2023-03-16T05:27:42;6.50;99.90
38500;DHT22;24269;51.894;4.622;2023-03-16T05:30:10;6.50;99.90
38500;DHT22;24269;51.894;4.622;2023-03-16T05:32:36;6.40;99.90
38500;DHT22;24269;51.894;4.622;2023-03-16T05:35:02;6.40;99.90
38500;DHT22;24269;51.894;4.622;2023-03-16T05:37:28;6.40;99.90
38500;DHT22;24269;51.894;4.622;2023-03-16T05:39:54;6.30;99.90
38500;DHT22;24269;51.894;4.622;2023-03-16T05:42:22;6.40;99.90
38500;DHT22;24269;51.894;4.622;2023-03-16T05:44:47;6.30;99.90
38500;DHT22;24269;51.894;4.622;2023-03-16T05:47:13;6.30;99.90
38500;DHT22;24269;51.894;4.622;2023-03-16T05:49:39;6.30;99.90
38500;DHT22;24269;51.894;4.622;2023-03-16T05:52:05;6.30;99.90
38500;DHT22;24269;51.894;4.622;2023-03-16T05:54:30;6.30;99.90
38500;DHT22;24269;51.894;4.622;2023-03-16T05:56:56;6.20;99.90
38500;DHT22;24269;51.894;4.622;2023-03-16T05:59:21;6.20;99.90
38500;DHT22;24269;51.894;4.622;2023-03-16T06:01:47;6.20;99.90
38500;DHT22;24269;51.894;4.622;2023-03-16T06:04:14;6.20;99.90
38500;DHT22;24269;51.894;4.622;2023-03-16T06:06:40;6.20;99.90
38500;DHT22;24269;51.894;4.622;2023-03-16T06:09:06;6.30;99.90
38500;DHT22;24269;51.894;4.622;2023-03-16T06:11:33;6.20;99.90
38500;DHT22;24269;51.894;4.622;2023-03-16T06:13:59;6.20;99.90
38500;DHT22;24269;51.894;4.622;2023-03-16T06:16:25;6.20;99.90
38500;DHT22;24269;51.894;4.622;2023-03-16T06:18:51;6.20;99.90
38500;DHT22;24269;51.894;4.622;2023-03-16T06:21:17;6.20;99.90
38500;DHT22;24269;51.894;4.622;2023-03-16T06:23:43;6.20;99.90
38500;DHT22;24269;51.894;4.622;2023-03-16T06:26:09;6.20;99.90
38500;DHT22;24269;51.894;4.622;2023-03-16T06:28:35;6.20;99.90
38500;DHT22;24269;51.894;4.622;2023-03-16T06:31:01;6.20;99.90
38500;DHT22;24269;51.894;4.622;2023-03-16T06:33:26;6.20;99.90
38500;DHT22;24269;51.894;4.622;2023-03-16T06:35:52;6.20;99.90
38500;DHT22;24269;51.894;4.622;2023-03-16T06:38:18;6.30;99.90
38500;DHT22;24269;51.894;4.622;2023-03-16T06:40:44;6.40;99.90
38500;DHT22;24269;51.894;4.622;2023-03-16T06:43:09;6.40;99.90
38500;DHT22;24269;51.894;4.622;2023-03-16T06:45:35;6.40;99.90
38500;DHT22;24269;51.894;4.622;2023-03-16T06:48:01;6.40;99.90
38500;DHT22;24269;51.894;4.622;2023-03-16T06:50:27;6.40;99.90
38500;DHT22;24269;51.894;4.622;2023-03-16T06:52:53;6.40;99.90
38500;DHT22;24269;51.894;4.622;2023-03-16T06:55:19;6.50;99.90
38500;DHT22;24269;51.894;4.622;2023-03-16T06:57:45;6.50;99.90
38500;DHT22;24269;51.894;4.622;2023-03-16T07:00:13;6.50;99.90
38500;DHT22;24269;51.894;4.622;2023-03-16T07:02:40;6.50;99.90
38500;DHT22;24269;51.894;4.622;2023-03-16T07:05:07;6.50;99.90
38500;DHT22;24269;51.894;4.622;2023-03-16T07:07:35;6.50;99.90
38500;DHT22;24269;51.894;4.622;2023-03-16T07:10:01;6.60;99.90
38500;DHT22;24269;51.894;4.622;2023-03-16T07:12:26;6.60;99.90
38500;DHT22;24269;51.894;4.622;2023-03-16T07:14:52;6.60;99.90
38500;DHT22;24269;51.894;4.622;2023-03-16T07:17:17;6.60;99.90
38500;DHT22;24269;51.894;4.622;2023-03-16T07:19:43;6.70;99.90
38500;DHT22;24269;51.894;4.622;2023-03-16T07:22:09;6.70;99.90
38500;DHT22;24269;51.894;4.622;2023-03-16T07:24:35;6.70;99.90
38500;DHT22;24269;51.894;4.622;2023-03-16T07:27:00;6.80;99.90
38500;DHT22;24269;51.894;4.622;2023-03-16T07:29:27;6.90;99.90
38500;DHT22;24269;51.894;4.622;2023-03-16T07:31:53;6.90;99.90
38500;DHT22;24269;51.894;4.622;2023-03-16T07:34:19;7.00;99.90
38500;DHT22;24269;51.894;4.622;2023-03-16T07:36:45;7.00;99.90
38500;DHT22;24269;51.894;4.622;2023-03-16T07:39:13;7.00;99.90
38500;DHT22;24269;51.894;4.622;2023-03-16T07:41:42;7.10;99.90
38500;DHT22;24269;51.894;4.622;2023-03-16T07:44:08;7.10;99.90
38500;DHT22;24269;51.894;4.622;2023-03-16T07:46:34;7.20;99.90
38500;DHT22;24269;51.894;4.622;2023-03-16T07:49:00;7.20;99.90
38500;DHT22;24269;51.894;4.622;2023-03-16T07:51:25;7.20;99.90
38500;DHT22;24269;51.894;4.622;2023-03-16T07:53:51;7.20;99.90
38500;DHT22;24269;51.894;4.622;2023-03-16T07:56:17;7.30;99.90
38500;DHT22;24269;51.894;4.622;2023-03-16T07:58:42;7.30;99.90
38500;DHT22;24269;51.894;4.622;2023-03-16T08:01:08;7.40;99.90
38500;DHT22;24269;51.894;4.622;2023-03-16T08:03:36;7.40;99.90
38500;DHT22;24269;51.894;4.622;2023-03-16T08:06:01;7.50;99.90
38500;DHT22;24269;51.894;4.622;2023-03-16T08:08:28;7.50;99.90
38500;DHT22;24269;51.894;4.622;2023-03-16T08:10:54;7.60;99.90
38500;DHT22;24269;51.894;4.622;2023-03-16T08:13:20;7.70;99.90
38500;DHT22;24269;51.894;4.622;2023-03-16T08:15:50;7.70;99.90
38500;DHT22;24269;51.894;4.622;2023-03-16T08:18:29;7.80;99.90
38500;DHT22;24269;51.894;4.622;2023-03-16T08:20:56;7.80;99.90
38500;DHT22;24269;51.894;4.622;2023-03-16T08:23:22;7.70;99.90
38500;DHT22;24269;51.894;4.622;2023-03-16T08:25:52;7.80;99.90
38500;DHT22;24269;51.894;4.622;2023-03-16T08:28:18;7.80;99.90
38500;DHT22;24269;51.894;4.622;2023-03-16T08:30:47;7.80;99.90
38500;DHT22;24269;51.894;4.622;2023-03-16T08:33:14;7.90;99.90
38500;DHT22;24269;51.894;4.622;2023-03-16T08:35:42;7.90;99.90
38500;DHT22;24269;51.894;4.622;2023-03-16T08:38:10;8.00;99.90
38500;DHT22;24269;51.894;4.622;2023-03-16T08:40:36;8.10;99.90
38500;DHT22;24269;51.894;4.622;2023-03-16T08:43:02;8.20;99.90
38500;DHT22;24269;51.894;4.622;2023-03-16T08:45:28;8.30;99.90
38500;DHT22;24269;51.894;4.622;2023-03-16T08:47:53;8.40;99.90
38500;DHT22;24269;51.894;4.622;2023-03-16T08:50:19;8.50;99.90
38500;DHT22;24269;51.894;4.622;2023-03-16T08:52:45;8.60;99.90
38500;DHT22;24269;51.894;4.622;2023-03-16T08:55:13;8.70;99.90
38500;DHT22;24269;51.894;4.622;2023-03-16T08:57:40;8.80;99.90
38500;DHT22;24269;51.894;4.622;2023-03-16T09:00:07;8.90;99.90
38500;DHT22;24269;51.894;4.622;2023-03-16T09:02:40;8.90;99.90
38500;DHT22;24269;51.894;4.622;2023-03-16T09:05:08;9.00;99.90
38500;DHT22;24269;51.894;4.622;2023-03-16T09:07:34;9.00;99.90
38500;DHT22;24269;51.894;4.622;2023-03-16T09:10:01;9.10;99.90
38500;DHT22;24269;51.894;4.622;2023-03-16T09:12:27;9.10;99.90
38500;DHT22;24269;51.894;4.622;2023-03-16T09:14:52;9.20;99.90
38500;DHT22;24269;51.894;4.622;2023-03-16T09:17:18;9.40;99.90
38500;DHT22;24269;51.894;4.622;2023-03-16T09:19:45;9.60;99.90
38500;DHT22;24269;51.894;4.622;2023-03-16T09:22:11;9.80;99.90
38500;DHT22;24269;51.894;4.622;2023-03-16T09:24:36;10.00;99.90
38500;DHT22;24269;51.894;4.622;2023-03-16T09:27:03;10.30;99.90
38500;DHT22;24269;51.894;4.622;2023-03-16T09:29:29;10.50;99.90
38500;DHT22;24269;51.894;4.622;2023-03-16T09:31:56;10.70;99.90
38500;DHT22;24269;51.894;4.622;2023-03-16T09:34:21;10.90;99.90
38500;DHT22;24269;51.894;4.622;2023-03-16T09:36:47;11.00;99.90
38500;DHT22;24269;51.894;4.622;2023-03-16T09:39:13;11.00;99.90
38500;DHT22;24269;51.894;4.622;2023-03-16T09:41:51;10.90;99.90
38500;DHT22;24269;51.894;4.622;2023-03-16T09:46:56;11.10;99.90
38500;DHT22;24269;51.894;4.622;2023-03-16T09:49:27;11.20;99.90
38500;DHT22;24269;51.894;4.622;2023-03-16T09:52:16;11.40;99.90
38500;DHT22;24269;51.894;4.622;2023-03-16T09:55:06;11.60;99.90
38500;DHT22;24269;51.894;4.622;2023-03-16T09:57:35;11.70;99.90
38500;DHT22;24269;51.894;4.622;2023-03-16T10:05:15;11.90;99.90
38500;DHT22;24269;51.894;4.622;2023-03-16T10:10:49;11.90;99.90
38500;DHT22;24269;51.894;4.622;2023-03-16T10:13:40;11.80;99.90
38500;DHT22;24269;51.894;4.622;2023-03-16T10:16:16;11.80;99.90
38500;DHT22;24269;51.894;4.622;2023-03-16T10:18:47;11.80;99.90
38500;DHT22;24269;51.894;4.622;2023-03-16T10:21:16;11.80;99.90
38500;DHT22;24269;51.894;4.622;2023-03-16T10:23:45;11.80;99.90
38500;DHT22;24269;51.894;4.622;2023-03-16T10:26:22;11.80;99.90
38500;DHT22;24269;51.894;4.622;2023-03-16T10:28:49;11.80;99.90
38500;DHT22;24269;51.894;4.622;2023-03-16T10:31:16;11.90;99.90
38500;DHT22;24269;51.894;4.622;2023-03-16T10:33:42;12.00;99.90
38500;DHT22;24269;51.894;4.622;2023-03-16T10:36:12;12.10;99.90
38500;DHT22;24269;51.894;4.622;2023-03-16T10:41:41;12.20;99.90
38500;DHT22;24269;51.894;4.622;2023-03-16T10:46:48;12.00;99.90
38500;DHT22;24269;51.894;4.622;2023-03-16T10:49:26;12.10;99.90
38500;DHT22;24269;51.894;4.622;2023-03-16T10:51:59;12.30;99.90
38500;DHT22;24269;51.894;4.622;2023-03-16T10:54:38;12.30;99.90
38500;DHT22;24269;51.894;4.622;2023-03-16T10:57:28;12.20;99.90
38500;DHT22;24269;51.894;4.622;2023-03-16T10:59:59;12.10;99.90
38500;DHT22;24269;51.894;4.622;2023-03-16T11:02:33;12.10;99.90
38500;DHT22;24269;51.894;4.622;2023-03-16T11:05:09;12.20;99.90
38500;DHT22;24269;51.894;4.622;2023-03-16T11:07:35;12.20;99.90
38500;DHT22;24269;51.894;4.622;2023-03-16T11:10:18;12.20;99.90
38500;DHT22;24269;51.894;4.622;2023-03-16T11:12:50;12.20;99.90
38500;DHT22;24269;51.894;4.622;2023-03-16T11:15:15;12.10;99.90
38500;DHT22;24269;51.894;4.622;2023-03-16T11:17:46;12.20;99.90
38500;DHT22;24269;51.894;4.622;2023-03-16T11:20:17;12.30;99.90
38500;DHT22;24269;51.894;4.622;2023-03-16T11:22:45;12.40;99.90
38500;DHT22;24269;51.894;4.622;2023-03-16T11:25:32;12.40;99.90
38500;DHT22;24269;51.894;4.622;2023-03-16T11:33:30;12.50;99.90
38500;DHT22;24269;51.894;4.622;2023-03-16T11:41:27;12.70;99.90
38500;DHT22;24269;51.894;4.622;2023-03-16T11:44:05;12.80;99.90
38500;DHT22;24269;51.894;4.622;2023-03-16T11:51:59;13.00;99.90
38500;DHT22;24269;51.894;4.622;2023-03-16T12:00:35;13.80;99.90
38500;DHT22;24269;51.894;4.622;2023-03-16T12:03:30;13.90;99.90
38500;DHT22;24269;51.894;4.622;2023-03-16T12:08:51;13.90;99.90
38500;DHT22;24269;51.894;4.622;2023-03-16T12:14:38;14.10;99.90
38500;DHT22;24269;51.894;4.622;2023-03-16T12:17:17;14.30;99.90
38500;DHT22;24269;51.894;4.622;2023-03-16T12:19:55;14.40;99.90
38500;DHT22;24269;51.894;4.622;2023-03-16T12:22:34;14.40;99.90
38500;DHT22;24269;51.894;4.622;2023-03-16T12:25:02;14.20;99.90
38500;DHT22;24269;51.894;4.622;2023-03-16T12:27:35;14.20;99.90
38500;DHT22;24269;51.894;4.622;2023-03-16T12:30:11;14.40;99.90
38500;DHT22;24269;51.894;4.622;2023-03-16T12:35:35;14.70;99.90
38500;DHT22;24269;51.894;4.622;2023-03-16T12:41:09;15.00;99.90
38500;DHT22;24269;51.894;4.622;2023-03-16T12:48:52;14.90;99.90
38500;DHT22;24269;51.894;4.622;2023-03-16T12:51:20;15.00;99.90
38500;DHT22;24269;51.894;4.622;2023-03-16T12:53:56;15.00;99.90
38500;DHT22;24269;51.894;4.622;2023-03-16T12:56:43;15.10;99.90
38500;DHT22;24269;51.894;4.622;2023-03-16T12:59:19;15.20;99.90
38500;DHT22;24269;51.894;4.622;2023-03-16T13:01:52;15.00;99.90
38500;DHT22;24269;51.894;4.622;2023-03-16T13:04:32;14.90;99.90
38500;DHT22;24269;51.894;4.622;2023-03-16T13:07:07;14.80;99.90
38500;DHT22;24269;51.894;4.622;2023-03-16T13:09:43;14.80;99.90
38500;DHT22;24269;51.894;4.622;2023-03-16T13:12:31;14.90;99.90
38500;DHT22;24269;51.894;4.622;2023-03-16T13:15:01;15.10;99.90
38500;DHT22;24269;51.894;4.622;2023-03-16T13:17:32;15.50;99.90
38500;DHT22;24269;51.894;4.622;2023-03-16T13:19:59;15.70;99.90
38500;DHT22;24269;51.894;4.622;2023-03-16T13:22:27;15.70;99.90
38500;DHT22;24269;51.894;4.622;2023-03-16T13:27:29;15.70;99.90
38500;DHT22;24269;51.894;4.622;2023-03-16T13:29:59;15.60;99.90
38500;DHT22;24269;51.894;4.622;2023-03-16T13:32:31;15.70;99.90
38500;DHT22;24269;51.894;4.622;2023-03-16T13:34:59;15.90;99.90
38500;DHT22;24269;51.894;4.622;2023-03-16T13:37:28;15.90;99.90
38500;DHT22;24269;51.894;4.622;2023-03-16T13:39:59;15.70;99.30
38500;DHT22;24269;51.894;4.622;2023-03-16T13:42:29;15.70;99.20
38500;DHT22;24269;51.894;4.622;2023-03-16T13:44:57;15.90;99.20
38500;DHT22;24269;51.894;4.622;2023-03-16T13:47:25;15.90;98.90
38500;DHT22;24269;51.894;4.622;2023-03-16T13:49:56;15.90;99.20
38500;DHT22;24269;51.894;4.622;2023-03-16T13:52:29;16.00;98.70
38500;DHT22;24269;51.894;4.622;2023-03-16T13:54:59;16.00;98.90
38500;DHT22;24269;51.894;4.622;2023-03-16T13:57:31;16.20;99.30
38500;DHT22;24269;51.894;4.622;2023-03-16T14:00:02;16.40;99.10
38500;DHT22;24269;51.894;4.622;2023-03-16T14:02:34;16.60;97.90
38500;DHT22;24269;51.894;4.622;2023-03-16T14:05:15;16.50;97.80
38500;DHT22;24269;51.894;4.622;2023-03-16T14:07:45;16.40;98.10
38500;DHT22;24269;51.894;4.622;2023-03-16T14:10:12;16.50;97.20
38500;DHT22;24269;51.894;4.622;2023-03-16T14:13:34;16.70;96.90
38500;DHT22;24269;51.894;4.622;2023-03-16T14:15:36;16.80;96.80
38500;DHT22;24269;51.894;4.622;2023-03-16T14:18:21;16.90;96.30
38500;DHT22;24269;51.894;4.622;2023-03-16T14:20:51;16.80;95.70
38500;DHT22;24269;51.894;4.622;2023-03-16T14:23:23;17.20;96.00
38500;DHT22;24269;51.894;4.622;2023-03-16T14:25:49;17.20;95.40
38500;DHT22;24269;51.894;4.622;2023-03-16T14:28:17;17.20;95.30
38500;DHT22;24269;51.894;4.622;2023-03-16T14:30:52;17.20;95.90
38500;DHT22;24269;51.894;4.622;2023-03-16T14:33:38;17.30;95.60
38500;DHT22;24269;51.894;4.622;2023-03-16T14:36:11;17.70;95.00
38500;DHT22;24269;51.894;4.622;2023-03-16T14:38:37;17.60;93.90
38500;DHT22;24269;51.894;4.622;2023-03-16T14:43:37;18.10;94.00
38500;DHT22;24269;51.894;4.622;2023-03-16T14:46:05;18.20;93.80
38500;DHT22;24269;51.894;4.622;2023-03-16T14:48:33;18.60;94.40
38500;DHT22;24269;51.894;4.622;2023-03-16T14:51:00;18.90;91.80
38500;DHT22;24269;51.894;4.622;2023-03-16T14:53:27;18.60;92.40
38500;DHT22;24269;51.894;4.622;2023-03-16T14:55:54;18.10;92.40
38500;DHT22;24269;51.894;4.622;2023-03-16T14:58:21;18.00;93.10
38500;DHT22;24269;51.894;4.622;2023-03-16T15:00:47;17.70;93.00
38500;DHT22;24269;51.894;4.622;2023-03-16T15:03:15;17.50;92.70
38500;DHT22;24269;51.894;4.622;2023-03-16T15:05:45;17.20;93.60
38500;DHT22;24269;51.894;4.622;2023-03-16T15:08:16;17.00;93.50
38500;DHT22;24269;51.894;4.622;2023-03-16T15:10:44;17.20;92.10
38500;DHT22;24269;51.894;4.622;2023-03-16T15:13:16;17.40;91.90
38500;DHT22;24269;51.894;4.622;2023-03-16T15:16:00;17.70;91.50
38500;DHT22;24269;51.894;4.622;2023-03-16T15:18:26;17.60;91.40
38500;DHT22;24269;51.894;4.622;2023-03-16T15:20:52;18.00;91.20
38500;DHT22;24269;51.894;4.622;2023-03-16T15:23:18;17.80;91.30
38500;DHT22;24269;51.894;4.622;2023-03-16T15:25:45;17.20;91.60
38500;DHT22;24269;51.894;4.622;2023-03-16T15:28:17;16.50;92.70
38500;DHT22;24269;51.894;4.622;2023-03-16T15:30:48;16.00;93.60
38500;DHT22;24269;51.894;4.622;2023-03-16T15:33:14;15.70;94.20
38500;DHT22;24269;51.894;4.622;2023-03-16T15:35:42;15.40;95.70
38500;DHT22;24269;51.894;4.622;2023-03-16T15:38:29;15.20;95.30
38500;DHT22;24269;51.894;4.622;2023-03-16T15:40:56;15.10;95.40
38500;DHT22;24269;51.894;4.622;2023-03-16T15:43:25;15.00;96.00
38500;DHT22;24269;51.894;4.622;2023-03-16T15:45:52;14.90;95.30
38500;DHT22;24269;51.894;4.622;2023-03-16T15:48:22;14.90;94.90
38500;DHT22;24269;51.894;4.622;2023-03-16T15:50:53;14.90;94.60
38500;DHT22;24269;51.894;4.622;2023-03-16T15:54:06;14.80;94.20
38500;DHT22;24269;51.894;4.622;2023-03-16T15:56:14;14.80;94.60
38500;DHT22;24269;51.894;4.622;2023-03-16T15:58:45;14.70;95.30
38500;DHT22;24269;51.894;4.622;2023-03-16T16:01:41;14.70;95.00
38500;DHT22;24269;51.894;4.622;2023-03-16T16:04:20;14.60;95.30
38500;DHT22;24269;51.894;4.622;2023-03-16T16:06:48;14.50;96.30
38500;DHT22;24269;51.894;4.622;2023-03-16T16:09:15;14.50;97.30
38500;DHT22;24269;51.894;4.622;2023-03-16T16:11:41;14.40;96.50
38500;DHT22;24269;51.894;4.622;2023-03-16T16:14:12;14.40;97.00
38500;DHT22;24269;51.894;4.622;2023-03-16T16:16:40;14.30;97.20
38500;DHT22;24269;51.894;4.622;2023-03-16T16:19:15;14.30;96.80
38500;DHT22;24269;51.894;4.622;2023-03-16T16:21:41;14.30;96.80
38500;DHT22;24269;51.894;4.622;2023-03-16T16:24:08;14.30;96.30
38500;DHT22;24269;51.894;4.622;2023-03-16T16:26:40;14.20;96.40
38500;DHT22;24269;51.894;4.622;2023-03-16T16:29:18;14.10;96.90
38500;DHT22;24269;51.894;4.622;2023-03-16T16:31:46;14.10;96.60
38500;DHT22;24269;51.894;4.622;2023-03-16T16:34:17;14.00;96.80
38500;DHT22;24269;51.894;4.622;2023-03-16T16:36:43;14.00;97.30
38500;DHT22;24269;51.894;4.622;2023-03-16T16:39:09;14.00;97.00
38500;DHT22;24269;51.894;4.622;2023-03-16T16:41:36;13.90;97.00
38500;DHT22;24269;51.894;4.622;2023-03-16T16:44:02;13.80;97.50
38500;DHT22;24269;51.894;4.622;2023-03-16T16:46:39;13.80;97.30
38500;DHT22;24269;51.894;4.622;2023-03-16T16:49:26;13.70;97.70
38500;DHT22;24269;51.894;4.622;2023-03-16T16:51:53;13.70;98.00
38500;DHT22;24269;51.894;4.622;2023-03-16T16:54:29;13.60;97.90
38500;DHT22;24269;51.894;4.622;2023-03-16T16:56:56;13.50;98.50
38500;DHT22;24269;51.894;4.622;2023-03-16T16:59:31;13.40;99.20
38500;DHT22;24269;51.894;4.622;2023-03-16T17:01:59;13.40;99.00